sensor_id;sensor_type;location;lat;lon;timestamp;temperature;humidity
29687;DHT22;16599;47.078;15.536;2022-08-19T00:01:59;16.60;99.90
29687;DHT22;16599;47.078;15.536;2022-08-19T00:04:33;16.90;99.90
29687;DHT22;16599;47.078;15.536;2022-08-19T00:07:04;16.70;99.90
29687;DHT22;16599;47.078;15.536;2022-08-19T00:09:31;16.60;99.90
29687;DHT22;16599;47.078;15.536;2022-08-19T00:11:58;16.70;99.90
29687;DHT22;16599;47.078;15.536;2022-08-19T00:14:26;16.80;99.90
29687;DHT22;16599;47.078;15.536;2022-08-19T00:16:54;16.40;99.90
29687;DHT22;16599;47.078;15.536;2022-08-19T00:19:22;16.20;99.90
29687;DHT22;16599;47.078;15.536;2022-08-19T00:21:49;16.30;99.90
29687;DHT22;16599;47.078;15.536;2022-08-19T00:24:16;16.40;99.90
29687;DHT22;16599;47.078;15.536;2022-08-19T00:26:44;16.40;99.90
29687;DHT22;16599;47.078;15.536;2022-08-19T00:29:13;16.20;99.90
29687;DHT22;16599;47.078;15.536;2022-08-19T00:31:41;16.30;99.90
29687;DHT22;16599;47.078;15.536;2022-08-19T00:34:10;16.50;99.90
29687;DHT22;16599;47.078;15.536;2022-08-19T00:36:38;16.60;99.90
29687;DHT22;16599;47.078;15.536;2022-08-19T00:39:06;16.40;99.90
29687;DHT22;16599;47.078;15.536;2022-08-19T00:41:33;16.30;99.90
29687;DHT22;16599;47.078;15.536;2022-08-19T00:44:05;16.40;99.90
29687;DHT22;16599;47.078;15.536;2022-08-19T00:46:35;16.50;99.90
29687;DHT22;16599;47.078;15.536;2022-08-19T00:51:55;16.20;99.90
29687;DHT22;16599;47.078;15.536;2022-08-19T00:54:25;16.30;99.90
29687;DHT22;16599;47.078;15.536;2022-08-19T00:56:57;16.40;99.90
29687;DHT22;16599;47.078;15.536;2022-08-19T00:59:25;16.50;99.90
29687;DHT22;16599;47.078;15.536;2022-08-19T01:02:12;16.30;99.90
29687;DHT22;16599;47.078;15.536;2022-08-19T01:04:39;16.40;99.90
29687;DHT22;16599;47.078;15.536;2022-08-19T01:07:06;16.40;99.90
29687;DHT22;16599;47.078;15.536;2022-08-19T01:09:33;16.10;99.90
29687;DHT22;16599;47.078;15.536;2022-08-19T01:12:00;15.80;99.90
29687;DHT22;16599;47.078;15.536;2022-08-19T01:14:28;16.00;99.90
29687;DHT22;16599;47.078;15.536;2022-08-19T01:16:57;16.00;99.90
29687;DHT22;16599;47.078;15.536;2022-08-19T01:19:30;15.80;99.90
29687;DHT22;16599;47.078;15.536;2022-08-19T01:22:30;16.10;99.90
29687;DHT22;16599;47.078;15.536;2022-08-19T01:25:00;16.40;99.90
29687;DHT22;16599;47.078;15.536;2022-08-19T01:27:27;16.50;99.90
29687;DHT22;16599;47.078;15.536;2022-08-19T01:30:10;16.60;99.90
29687;DHT22;16599;47.078;15.536;2022-08-19T01:32:37;16.70;99.90
29687;DHT22;16599;47.078;15.536;2022-08-19T01:35:04;16.70;99.90
29687;DHT22;16599;47.078;15.536;2022-08-19T01:37:52;16.30;99.90
29687;DHT22;16599;47.078;15.536;2022-08-19T01:40:21;16.00;99.90
29687;DHT22;16599;47.078;15.536;2022-08-19T01:42:49;16.00;99.90
29687;DHT22;16599;47.078;15.536;2022-08-19T01:45:17;15.90;99.90
29687;DHT22;16599;47.078;15.536;2022-08-19T01:47:44;16.10;99.90
29687;DHT22;16599;47.078;15.536;2022-08-19T01:50:27;16.00;99.90
29687;DHT22;16599;47.078;15.536;2022-08-19T01:52:54;16.00;99.90
29687;DHT22;16599;47.078;15.536;2022-08-19T01:55:34;16.00;99.90
29687;DHT22;16599;47.078;15.536;2022-08-19T01:58:12;16.00;99.90
29687;DHT22;16599;47.078;15.536;2022-08-19T02:00:41;16.00;99.90
29687;DHT22;16599;47.078;15.536;2022-08-19T02:03:08;15.90;99.90
29687;DHT22;16599;47.078;15.536;2022-08-19T02:05:36;15.80;99.90
29687;DHT22;16599;47.078;15.536;2022-08-19T02:08:04;15.80;99.90
29687;DHT22;16599;47.078;15.536;2022-08-19T02:10:31;16.10;99.90
29687;DHT22;16599;47.078;15.536;2022-08-19T02:12:58;16.20;99.90
29687;DHT22;16599;47.078;15.536;2022-08-19T02:15:25;16.20;99.90
29687;DHT22;16599;47.078;15.536;2022-08-19T02:17:52;16.20;99.90
29687;DHT22;16599;47.078;15.536;2022-08-19T02:20:19;16.30;99.90
29687;DHT22;16599;47.078;15.536;2022-08-19T02:22:46;16.20;99.90
29687;DHT22;16599;47.078;15.536;2022-08-19T02:25:14;16.10;99.90
29687;DHT22;16599;47.078;15.536;2022-08-19T02:27:41;16.10;99.90
29687;DHT22;16599;47.078;15.536;2022-08-19T02:30:12;16.10;99.90
29687;DHT22;16599;47.078;15.536;2022-08-19T02:32:40;16.20;99.90
29687;DHT22;16599;47.078;15.536;2022-08-19T02:35:11;16.50;99.90
29687;DHT22;16599;47.078;15.536;2022-08-19T02:37:39;16.60;99.90
29687;DHT22;16599;47.078;15.536;2022-08-19T02:40:24;16.60;99.90
29687;DHT22;16599;47.078;15.536;2022-08-19T02:42:51;16.50;99.90
29687;DHT22;16599;47.078;15.536;2022-08-19T02:45:19;16.30;99.90
29687;DHT22;16599;47.078;15.536;2022-08-19T02:47:46;16.00;99.90
29687;DHT22;16599;47.078;15.536;2022-08-19T02:50:13;15.90;99.90
29687;DHT22;16599;47.078;15.536;2022-08-19T02:52:41;16.00;99.90
29687;DHT22;16599;47.078;15.536;2022-08-19T02:55:08;16.00;99.90
29687;DHT22;16599;47.078;15.536;2022-08-19T02:57:35;16.00;99.90
29687;DHT22;16599;47.078;15.536;2022-08-19T03:00:05;16.00;99.90
29687;DHT22;16599;47.078;15.536;2022-08-19T03:02:33;16.20;99.90
29687;DHT22;16599;47.078;15.536;2022-08-19T03:04:59;16.40;99.90
29687;DHT22;16599;47.078;15.536;2022-08-19T03:07:28;16.30;99.90
29687;DHT22;16599;47.078;15.536;2022-08-19T03:09:54;16.10;99.90
29687;DHT22;16599;47.078;15.536;2022-08-19T03:12:21;16.20;99.90
29687;DHT22;16599;47.078;15.536;2022-08-19T03:14:48;16.30;99.90
29687;DHT22;16599;47.078;15.536;2022-08-19T03:17:15;16.00;99.90
29687;DHT22;16599;47.078;15.536;2022-08-19T03:19:42;16.10;99.90
29687;DHT22;16599;47.078;15.536;2022-08-19T03:22:09;16.40;99.90
29687;DHT22;16599;47.078;15.536;2022-08-19T03:24:37;16.50;99.90
29687;DHT22;16599;47.078;15.536;2022-08-19T03:27:05;16.40;99.90
29687;DHT22;16599;47.078;15.536;2022-08-19T03:29:32;16.40;99.90
29687;DHT22;16599;47.078;15.536;2022-08-19T03:32:09;16.30;99.90
29687;DHT22;16599;47.078;15.536;2022-08-19T03:34:56;16.00;99.90
29687;DHT22;16599;47.078;15.536;2022-08-19T03:37:23;16.00;99.90
29687;DHT22;16599;47.078;15.536;2022-08-19T03:39:51;16.00;99.90
29687;DHT22;16599;47.078;15.536;2022-08-19T03:42:18;16.10;99.90
29687;DHT22;16599;47.078;15.536;2022-08-19T03:45:05;16.20;99.90
29687;DHT22;16599;47.078;15.536;2022-08-19T03:47:33;16.30;99.90
29687;DHT22;16599;47.078;15.536;2022-08-19T03:50:00;16.30;99.90
29687;DHT22;16599;47.078;15.536;2022-08-19T03:52:27;16.40;99.90
29687;DHT22;16599;47.078;15.536;2022-08-19T03:54:54;16.50;99.90
29687;DHT22;16599;47.078;15.536;2022-08-19T03:57:21;16.70;99.90
29687;DHT22;16599;47.078;15.536;2022-08-19T03:59:57;16.60;99.90
29687;DHT22;16599;47.078;15.536;2022-08-19T04:02:40;16.60;99.90
29687;DHT22;16599;47.078;15.536;2022-08-19T04:05:23;16.70;99.90
29687;DHT22;16599;47.078;15.536;2022-08-19T04:07:53;16.50;99.90
29687;DHT22;16599;47.078;15.536;2022-08-19T04:10:20;16.50;99.90
29687;DHT22;16599;47.078;15.536;2022-08-19T04:12:47;16.60;99.90
29687;DHT22;16599;47.078;15.536;2022-08-19T04:15:14;16.80;99.90
29687;DHT22;16599;47.078;15.536;2022-08-19T04:17:41;17.10;99.90
29687;DHT22;16599;47.078;15.536;2022-08-19T04:20:08;17.10;99.90
29687;DHT22;16599;47.078;15.536;2022-08-19T04:22:36;17.00;99.90
29687;DHT22;16599;47.078;15.536;2022-08-19T04:25:03;17.10;99.90
29687;DHT22;16599;47.078;15.536;2022-08-19T04:27:30;17.20;99.90
29687;DHT22;16599;47.078;15.536;2022-08-19T04:29:57;17.40;99.90
29687;DHT22;16599;47.078;15.536;2022-08-19T04:32:24;17.40;99.90
29687;DHT22;16599;47.078;15.536;2022-08-19T04:34:51;17.40;99.90
29687;DHT22;16599;47.078;15.536;2022-08-19T04:37:38;17.30;99.90
29687;DHT22;16599;47.078;15.536;2022-08-19T04:40:06;17.30;99.90
29687;DHT22;16599;47.078;15.536;2022-08-19T04:42:51;17.40;99.90
29687;DHT22;16599;47.078;15.536;2022-08-19T04:45:20;17.40;99.90
29687;DHT22;16599;47.078;15.536;2022-08-19T04:47:49;17.40;99.90
29687;DHT22;16599;47.078;15.536;2022-08-19T04:50:27;17.50;99.90
29687;DHT22;16599;47.078;15.536;2022-08-19T04:52:54;17.50;99.90
29687;DHT22;16599;47.078;15.536;2022-08-19T04:55:23;17.60;99.90
29687;DHT22;16599;47.078;15.536;2022-08-19T04:57:52;17.70;99.90
29687;DHT22;16599;47.078;15.536;2022-08-19T05:00:19;17.60;99.90
29687;DHT22;16599;47.078;15.536;2022-08-19T05:02:46;17.70;99.90
29687;DHT22;16599;47.078;15.536;2022-08-19T05:05:13;17.70;99.90
29687;DHT22;16599;47.078;15.536;2022-08-19T05:07:40;17.70;99.90
29687;DHT22;16599;47.078;15.536;2022-08-19T05:10:08;17.70;99.90
29687;DHT22;16599;47.078;15.536;2022-08-19T05:12:35;17.80;99.90
29687;DHT22;16599;47.078;15.536;2022-08-19T05:15:03;17.80;99.90
29687;DHT22;16599;47.078;15.536;2022-08-19T05:17:31;17.80;99.90
29687;DHT22;16599;47.078;15.536;2022-08-19T05:20:05;17.90;99.90
29687;DHT22;16599;47.078;15.536;2022-08-19T05:22:51;18.00;99.90
29687;DHT22;16599;47.078;15.536;2022-08-19T05:25:20;18.10;99.90
29687;DHT22;16599;47.078;15.536;2022-08-19T05:27:48;18.30;99.90
29687;DHT22;16599;47.078;15.536;2022-08-19T05:30:15;18.30;99.90
29687;DHT22;16599;47.078;15.536;2022-08-19T05:32:42;18.30;99.90
29687;DHT22;16599;47.078;15.536;2022-08-19T05:35:10;18.30;99.90
29687;DHT22;16599;47.078;15.536;2022-08-19T05:37:38;18.30;99.90
29687;DHT22;16599;47.078;15.536;2022-08-19T05:40:08;18.40;99.90
29687;DHT22;16599;47.078;15.536;2022-08-19T05:42:36;18.40;99.90
29687;DHT22;16599;47.078;15.536;2022-08-19T05:45:04;18.50;99.90
29687;DHT22;16599;47.078;15.536;2022-08-19T05:47:31;18.60;99.90
29687;DHT22;16599;47.078;15.536;2022-08-19T05:49:58;18.60;99.90
29687;DHT22;16599;47.078;15.536;2022-08-19T05:52:25;18.70;99.90
29687;DHT22;16599;47.078;15.536;2022-08-19T05:54:54;18.80;99.90
29687;DHT22;16599;47.078;15.536;2022-08-19T05:57:23;18.90;99.90
29687;DHT22;16599;47.078;15.536;2022-08-19T05:59:50;19.00;99.90
29687;DHT22;16599;47.078;15.536;2022-08-19T06:02:25;19.00;99.90
29687;DHT22;16599;47.078;15.536;2022-08-19T06:04:52;19.10;99.90
29687;DHT22;16599;47.078;15.536;2022-08-19T06:07:19;19.10;99.90
29687;DHT22;16599;47.078;15.536;2022-08-19T06:09:46;19.10;99.90
29687;DHT22;16599;47.078;15.536;2022-08-19T06:12:27;19.20;99.90
29687;DHT22;16599;47.078;15.536;2022-08-19T06:14:59;19.20;99.90
29687;DHT22;16599;47.078;15.536;2022-08-19T06:17:28;19.20;99.90
29687;DHT22;16599;47.078;15.536;2022-08-19T06:19:57;19.10;99.90
29687;DHT22;16599;47.078;15.536;2022-08-19T06:22:25;19.10;99.90
29687;DHT22;16599;47.078;15.536;2022-08-19T06:24:53;19.20;99.90
29687;DHT22;16599;47.078;15.536;2022-08-19T06:27:21;19.10;99.90
29687;DHT22;16599;47.078;15.536;2022-08-19T06:29:48;19.20;99.90
29687;DHT22;16599;47.078;15.536;2022-08-19T06:32:16;19.30;99.90
29687;DHT22;16599;47.078;15.536;2022-08-19T06:34:46;19.40;99.90
29687;DHT22;16599;47.078;15.536;2022-08-19T06:37:13;19.50;99.90
29687;DHT22;16599;47.078;15.536;2022-08-19T06:39:43;19.60;99.90
29687;DHT22;16599;47.078;15.536;2022-08-19T06:42:11;19.70;99.90
29687;DHT22;16599;47.078;15.536;2022-08-19T06:44:42;19.80;99.90
29687;DHT22;16599;47.078;15.536;2022-08-19T06:47:20;19.80;99.90
29687;DHT22;16599;47.078;15.536;2022-08-19T06:49:54;20.10;99.90
29687;DHT22;16599;47.078;15.536;2022-08-19T06:52:33;20.30;99.90
29687;DHT22;16599;47.078;15.536;2022-08-19T06:55:04;20.30;99.90
29687;DHT22;16599;47.078;15.536;2022-08-19T06:57:32;20.40;99.90
29687;DHT22;16599;47.078;15.536;2022-08-19T06:59:59;20.40;99.90
29687;DHT22;16599;47.078;15.536;2022-08-19T07:02:26;20.40;99.90
29687;DHT22;16599;47.078;15.536;2022-08-19T07:04:53;20.50;99.90
29687;DHT22;16599;47.078;15.536;2022-08-19T07:07:20;20.60;99.90
29687;DHT22;16599;47.078;15.536;2022-08-19T07:09:50;20.60;99.90
29687;DHT22;16599;47.078;15.536;2022-08-19T07:12:28;20.60;99.90
29687;DHT22;16599;47.078;15.536;2022-08-19T07:14:57;20.70;99.90
29687;DHT22;16599;47.078;15.536;2022-08-19T07:17:25;20.70;99.90
29687;DHT22;16599;47.078;15.536;2022-08-19T07:19:52;20.70;99.90
29687;DHT22;16599;47.078;15.536;2022-08-19T07:22:21;20.70;99.90
29687;DHT22;16599;47.078;15.536;2022-08-19T07:24:50;20.60;99.90
29687;DHT22;16599;47.078;15.536;2022-08-19T07:27:18;20.60;99.90
29687;DHT22;16599;47.078;15.536;2022-08-19T07:29:52;20.60;99.90
29687;DHT22;16599;47.078;15.536;2022-08-19T07:32:25;20.70;99.90
29687;DHT22;16599;47.078;15.536;2022-08-19T07:34:54;20.70;99.90
29687;DHT22;16599;47.078;15.536;2022-08-19T07:37:23;20.70;99.90
29687;DHT22;16599;47.078;15.536;2022-08-19T07:39:59;20.60;99.90
29687;DHT22;16599;47.078;15.536;2022-08-19T07:42:26;20.70;99.90
29687;DHT22;16599;47.078;15.536;2022-08-19T07:44:54;20.60;99.90
29687;DHT22;16599;47.078;15.536;2022-08-19T07:47:21;20.50;99.90
29687;DHT22;16599;47.078;15.536;2022-08-19T07:50:10;20.30;99.90
29687;DHT22;16599;47.078;15.536;2022-08-19T07:52:38;20.20;99.90
29687;DHT22;16599;47.078;15.536;2022-08-19T07:55:08;20.10;99.90
29687;DHT22;16599;47.078;15.536;2022-08-19T07:57:56;19.90;99.90
29687;DHT22;16599;47.078;15.536;2022-08-19T08:00:23;19.80;99.90
29687;DHT22;16599;47.078;15.536;2022-08-19T08:02:52;19.40;99.90
29687;DHT22;16599;47.078;15.536;2022-08-19T08:05:22;19.40;99.90
29687;DHT22;16599;47.078;15.536;2022-08-19T08:08:11;19.50;99.90
29687;DHT22;16599;47.078;15.536;2022-08-19T08:10:58;19.30;99.90
29687;DHT22;16599;47.078;15.536;2022-08-19T08:13:25;19.30;99.90
29687;DHT22;16599;47.078;15.536;2022-08-19T08:15:52;19.40;99.90
29687;DHT22;16599;47.078;15.536;2022-08-19T08:18:22;19.30;99.90
29687;DHT22;16599;47.078;15.536;2022-08-19T08:20:56;19.30;99.90
29687;DHT22;16599;47.078;15.536;2022-08-19T08:23:25;19.20;99.90
29687;DHT22;16599;47.078;15.536;2022-08-19T08:25:55;19.10;99.90
29687;DHT22;16599;47.078;15.536;2022-08-19T08:28:24;19.00;99.90
29687;DHT22;16599;47.078;15.536;2022-08-19T08:30:51;19.10;99.90
29687;DHT22;16599;47.078;15.536;2022-08-19T08:33:20;19.10;99.90
29687;DHT22;16599;47.078;15.536;2022-08-19T08:36:07;19.10;99.90
29687;DHT22;16599;47.078;15.536;2022-08-19T08:38:35;19.20;99.90
29687;DHT22;16599;47.078;15.536;2022-08-19T08:43:51;19.30;99.90
29687;DHT22;16599;47.078;15.536;2022-08-19T08:51:48;19.60;99.90
29687;DHT22;16599;47.078;15.536;2022-08-19T08:54:35;19.40;99.90
29687;DHT22;16599;47.078;15.536;2022-08-19T08:57:06;19.30;99.90
29687;DHT22;16599;47.078;15.536;2022-08-19T08:59:36;19.20;99.90
29687;DHT22;16599;47.078;15.536;2022-08-19T09:02:04;19.10;99.90
29687;DHT22;16599;47.078;15.536;2022-08-19T09:04:31;19.30;99.90
29687;DHT22;16599;47.078;15.536;2022-08-19T09:15:40;19.60;99.90
29687;DHT22;16599;47.078;15.536;2022-08-19T09:18:09;19.50;99.90
29687;DHT22;16599;47.078;15.536;2022-08-19T09:20:45;19.60;99.90
29687;DHT22;16599;47.078;15.536;2022-08-19T09:23:14;19.60;99.90
29687;DHT22;16599;47.078;15.536;2022-08-19T09:25:42;19.60;99.90
29687;DHT22;16599;47.078;15.536;2022-08-19T09:28:08;19.60;99.90
29687;DHT22;16599;47.078;15.536;2022-08-19T09:30:51;19.90;99.90
29687;DHT22;16599;47.078;15.536;2022-08-19T09:33:18;19.90;99.90
29687;DHT22;16599;47.078;15.536;2022-08-19T09:35:46;20.00;99.90
29687;DHT22;16599;47.078;15.536;2022-08-19T09:38:19;20.00;99.90
29687;DHT22;16599;47.078;15.536;2022-08-19T09:40:46;20.20;99.90
29687;DHT22;16599;47.078;15.536;2022-08-19T09:43:13;20.50;99.90
29687;DHT22;16599;47.078;15.536;2022-08-19T09:45:40;20.80;99.90
29687;DHT22;16599;47.078;15.536;2022-08-19T09:48:07;20.90;99.90
29687;DHT22;16599;47.078;15.536;2022-08-19T09:50:35;21.00;99.90
29687;DHT22;16599;47.078;15.536;2022-08-19T09:53:18;21.10;99.90
29687;DHT22;16599;47.078;15.536;2022-08-19T09:55:45;21.40;99.90
29687;DHT22;16599;47.078;15.536;2022-08-19T09:58:12;21.60;99.90
29687;DHT22;16599;47.078;15.536;2022-08-19T10:00:39;21.70;99.90
29687;DHT22;16599;47.078;15.536;2022-08-19T10:03:06;21.70;99.90
29687;DHT22;16599;47.078;15.536;2022-08-19T10:05:34;21.80;99.90
29687;DHT22;16599;47.078;15.536;2022-08-19T10:08:23;21.80;99.90
29687;DHT22;16599;47.078;15.536;2022-08-19T10:10:53;21.70;99.90
29687;DHT22;16599;47.078;15.536;2022-08-19T10:13:24;21.70;99.90
29687;DHT22;16599;47.078;15.536;2022-08-19T10:15:54;21.90;99.90
29687;DHT22;16599;47.078;15.536;2022-08-19T10:18:22;21.80;99.90
29687;DHT22;16599;47.078;15.536;2022-08-19T10:20:51;21.70;99.90
29687;DHT22;16599;47.078;15.536;2022-08-19T10:23:20;21.80;99.90
29687;DHT22;16599;47.078;15.536;2022-08-19T10:25:48;21.90;99.90
29687;DHT22;16599;47.078;15.536;2022-08-19T10:28:15;21.90;99.90
29687;DHT22;16599;47.078;15.536;2022-08-19T10:30:45;21.90;99.90
29687;DHT22;16599;47.078;15.536;2022-08-19T10:33:12;21.70;99.90
29687;DHT22;16599;47.078;15.536;2022-08-19T10:35:40;21.80;99.90
29687;DHT22;16599;47.078;15.536;2022-08-19T10:38:22;21.70;99.90
29687;DHT22;16599;47.078;15.536;2022-08-19T10:41:05;21.70;99.90
29687;DHT22;16599;47.078;15.536;2022-08-19T10:43:33;21.80;99.90
29687;DHT22;16599;47.078;15.536;2022-08-19T10:46:04;21.80;99.90
29687;DHT22;16599;47.078;15.536;2022-08-19T10:48:41;21.80;99.90
29687;DHT22;16599;47.078;15.536;2022-08-19T10:51:09;21.80;99.90
29687;DHT22;16599;47.078;15.536;2022-08-19T10:53:56;21.90;99.90
29687;DHT22;16599;47.078;15.536;2022-08-19T10:56:24;22.10;99.90
29687;DHT22;16599;47.078;15.536;2022-08-19T10:59:10;22.10;99.90
29687;DHT22;16599;47.078;15.536;2022-08-19T11:01:42;22.20;99.90
29687;DHT22;16599;47.078;15.536;2022-08-19T11:04:09;22.20;99.90
29687;DHT22;16599;47.078;15.536;2022-08-19T11:06:38;22.20;99.90
29687;DHT22;16599;47.078;15.536;2022-08-19T11:09:05;22.40;99.90
29687;DHT22;16599;47.078;15.536;2022-08-19T11:11:32;22.50;99.90
29687;DHT22;16599;47.078;15.536;2022-08-19T11:14:05;22.60;99.90
29687;DHT22;16599;47.078;15.536;2022-08-19T11:16:31;22.70;99.90
29687;DHT22;16599;47.078;15.536;2022-08-19T11:18:59;22.80;99.90
29687;DHT22;16599;47.078;15.536;2022-08-19T11:21:36;22.70;99.90
29687;DHT22;16599;47.078;15.536;2022-08-19T11:24:09;22.80;99.90
29687;DHT22;16599;47.078;15.536;2022-08-19T11:26:37;22.80;98.50
29687;DHT22;16599;47.078;15.536;2022-08-19T11:29:06;22.90;99.90
29687;DHT22;16599;47.078;15.536;2022-08-19T11:31:39;22.90;99.90
29687;DHT22;16599;47.078;15.536;2022-08-19T11:34:09;22.90;99.90
29687;DHT22;16599;47.078;15.536;2022-08-19T11:36:41;23.00;98.60
29687;DHT22;16599;47.078;15.536;2022-08-19T11:39:10;22.90;99.20
29687;DHT22;16599;47.078;15.536;2022-08-19T11:41:38;23.00;97.50
29687;DHT22;16599;47.078;15.536;2022-08-19T11:44:05;23.00;99.20
29687;DHT22;16599;47.078;15.536;2022-08-19T11:46:36;23.10;99.90
29687;DHT22;16599;47.078;15.536;2022-08-19T11:49:04;23.00;99.90
29687;DHT22;16599;47.078;15.536;2022-08-19T11:51:37;23.10;99.90
29687;DHT22;16599;47.078;15.536;2022-08-19T11:54:05;23.20;97.10
29687;DHT22;16599;47.078;15.536;2022-08-19T11:56:32;23.30;95.70
29687;DHT22;16599;47.078;15.536;2022-08-19T11:59:01;23.30;96.30
29687;DHT22;16599;47.078;15.536;2022-08-19T12:01:28;23.30;96.70
29687;DHT22;16599;47.078;15.536;2022-08-19T12:03:56;23.30;94.70
29687;DHT22;16599;47.078;15.536;2022-08-19T12:06:29;23.30;94.00
29687;DHT22;16599;47.078;15.536;2022-08-19T12:09:05;23.30;92.60
29687;DHT22;16599;47.078;15.536;2022-08-19T12:11:32;23.40;93.90
29687;DHT22;16599;47.078;15.536;2022-08-19T12:14:00;23.60;93.30
29687;DHT22;16599;47.078;15.536;2022-08-19T12:16:28;23.60;92.80
29687;DHT22;16599;47.078;15.536;2022-08-19T12:18:58;23.60;91.10
29687;DHT22;16599;47.078;15.536;2022-08-19T12:21:30;23.70;92.00
29687;DHT22;16599;47.078;15.536;2022-08-19T12:23:58;23.90;92.80
29687;DHT22;16599;47.078;15.536;2022-08-19T12:26:26;23.90;91.10
29687;DHT22;16599;47.078;15.536;2022-08-19T12:28:54;24.00;91.70
29687;DHT22;16599;47.078;15.536;2022-08-19T12:31:21;24.10;91.50
29687;DHT22;16599;47.078;15.536;2022-08-19T12:33:48;24.40;90.80
29687;DHT22;16599;47.078;15.536;2022-08-19T12:36:16;24.60;88.80
29687;DHT22;16599;47.078;15.536;2022-08-19T12:38:44;24.60;88.30
29687;DHT22;16599;47.078;15.536;2022-08-19T12:41:13;24.50;89.10
29687;DHT22;16599;47.078;15.536;2022-08-19T12:43:40;24.70;90.10
29687;DHT22;16599;47.078;15.536;2022-08-19T12:46:09;24.90;87.40
29687;DHT22;16599;47.078;15.536;2022-08-19T12:48:37;24.70;82.10
29687;DHT22;16599;47.078;15.536;2022-08-19T12:51:09;24.90;81.10
29687;DHT22;16599;47.078;15.536;2022-08-19T12:53:37;25.20;82.50
29687;DHT22;16599;47.078;15.536;2022-08-19T12:56:06;25.40;78.00
29687;DHT22;16599;47.078;15.536;2022-08-19T12:58:38;25.40;78.40
29687;DHT22;16599;47.078;15.536;2022-08-19T13:01:13;25.70;78.00
29687;DHT22;16599;47.078;15.536;2022-08-19T13:03:45;26.10;74.60
29687;DHT22;16599;47.078;15.536;2022-08-19T13:06:13;25.60;74.50
29687;DHT22;16599;47.078;15.536;2022-08-19T13:08:44;26.00;76.60
29687;DHT22;16599;47.078;15.536;2022-08-19T13:11:14;26.00;72.60
29687;DHT22;16599;47.078;15.536;2022-08-19T13:13:42;26.00;73.40
29687;DHT22;16599;47.078;15.536;2022-08-19T13:16:11;25.80;72.80
29687;DHT22;16599;47.078;15.536;2022-08-19T13:18:39;25.80;75.40
29687;DHT22;16599;47.078;15.536;2022-08-19T13:21:08;25.70;75.10
29687;DHT22;16599;47.078;15.536;2022-08-19T13:23:36;25.50;76.20
29687;DHT22;16599;47.078;15.536;2022-08-19T13:26:05;25.40;74.50
29687;DHT22;16599;47.078;15.536;2022-08-19T13:28:33;25.40;76.60
29687;DHT22;16599;47.078;15.536;2022-08-19T13:31:20;25.40;75.30
29687;DHT22;16599;47.078;15.536;2022-08-19T13:34:07;25.20;75.90
29687;DHT22;16599;47.078;15.536;2022-08-19T13:36:34;25.40;76.10
29687;DHT22;16599;47.078;15.536;2022-08-19T13:39:02;25.50;74.30
29687;DHT22;16599;47.078;15.536;2022-08-19T13:41:29;25.40;73.40
29687;DHT22;16599;47.078;15.536;2022-08-19T13:43:57;25.30;73.70
29687;DHT22;16599;47.078;15.536;2022-08-19T13:46:23;25.40;75.20
29687;DHT22;16599;47.078;15.536;2022-08-19T13:48:50;25.80;73.50
29687;DHT22;16599;47.078;15.536;2022-08-19T13:51:17;26.10;70.50
29687;DHT22;16599;47.078;15.536;2022-08-19T13:53:44;26.00;72.70
29687;DHT22;16599;47.078;15.536;2022-08-19T13:56:15;25.90;72.80
29687;DHT22;16599;47.078;15.536;2022-08-19T13:58:43;25.70;74.60
29687;DHT22;16599;47.078;15.536;2022-08-19T14:01:10;25.70;74.70
29687;DHT22;16599;47.078;15.536;2022-08-19T14:03:38;25.50;74.20
29687;DHT22;16599;47.078;15.536;2022-08-19T14:06:05;25.50;73.90
29687;DHT22;16599;47.078;15.536;2022-08-19T14:08:32;25.70;73.30
29687;DHT22;16599;47.078;15.536;2022-08-19T14:10:59;26.00;73.30
29687;DHT22;16599;47.078;15.536;2022-08-19T14:13:32;26.50;71.10
29687;DHT22;16599;47.078;15.536;2022-08-19T14:16:00;26.40;71.40
29687;DHT22;16599;47.078;15.536;2022-08-19T14:18:27;26.60;70.70
29687;DHT22;16599;47.078;15.536;2022-08-19T14:20:56;26.60;70.70
29687;DHT22;16599;47.078;15.536;2022-08-19T14:23:24;27.00;71.30
29687;DHT22;16599;47.078;15.536;2022-08-19T14:25:51;27.00;68.30
29687;DHT22;16599;47.078;15.536;2022-08-19T14:28:18;26.90;69.90
29687;DHT22;16599;47.078;15.536;2022-08-19T14:30:45;27.20;69.30
29687;DHT22;16599;47.078;15.536;2022-08-19T14:33:12;26.70;68.00
29687;DHT22;16599;47.078;15.536;2022-08-19T14:35:40;26.50;68.80
29687;DHT22;16599;47.078;15.536;2022-08-19T14:38:16;26.80;66.60
29687;DHT22;16599;47.078;15.536;2022-08-19T14:40:53;26.80;69.50
29687;DHT22;16599;47.078;15.536;2022-08-19T14:43:20;26.70;69.20
29687;DHT22;16599;47.078;15.536;2022-08-19T14:45:48;26.80;70.90
29687;DHT22;16599;47.078;15.536;2022-08-19T14:48:15;26.60;69.60
29687;DHT22;16599;47.078;15.536;2022-08-19T14:50:45;26.10;71.10
29687;DHT22;16599;47.078;15.536;2022-08-19T14:53:12;25.90;72.20
29687;DHT22;16599;47.078;15.536;2022-08-19T14:55:43;26.00;69.40
29687;DHT22;16599;47.078;15.536;2022-08-19T14:58:10;26.50;69.50
29687;DHT22;16599;47.078;15.536;2022-08-19T15:00:57;26.60;69.10
29687;DHT22;16599;47.078;15.536;2022-08-19T15:03:24;26.70;70.60
29687;DHT22;16599;47.078;15.536;2022-08-19T15:05:51;26.70;70.10
29687;DHT22;16599;47.078;15.536;2022-08-19T15:08:18;26.50;68.40
29687;DHT22;16599;47.078;15.536;2022-08-19T15:10:45;26.50;69.80
29687;DHT22;16599;47.078;15.536;2022-08-19T15:13:14;26.40;69.30
29687;DHT22;16599;47.078;15.536;2022-08-19T15:15:41;26.40;69.50
29687;DHT22;16599;47.078;15.536;2022-08-19T15:18:08;26.10;68.40
29687;DHT22;16599;47.078;15.536;2022-08-19T15:20:35;25.90;69.00
29687;DHT22;16599;47.078;15.536;2022-08-19T15:23:02;26.00;73.30
29687;DHT22;16599;47.078;15.536;2022-08-19T15:25:29;26.20;77.30
29687;DHT22;16599;47.078;15.536;2022-08-19T15:27:56;26.10;75.80
29687;DHT22;16599;47.078;15.536;2022-08-19T15:30:26;25.90;72.60
29687;DHT22;16599;47.078;15.536;2022-08-19T15:32:55;25.80;74.00
29687;DHT22;16599;47.078;15.536;2022-08-19T15:35:23;25.80;74.20
29687;DHT22;16599;47.078;15.536;2022-08-19T15:37:54;25.80;74.70
29687;DHT22;16599;47.078;15.536;2022-08-19T15:40:23;25.70;78.00
29687;DHT22;16599;47.078;15.536;2022-08-19T15:42:51;25.60;78.30
29687;DHT22;16599;47.078;15.536;2022-08-19T15:45:20;25.50;76.00
29687;DHT22;16599;47.078;15.536;2022-08-19T15:47:47;25.50;78.10
29687;DHT22;16599;47.078;15.536;2022-08-19T15:50:18;25.40;78.90
29687;DHT22;16599;47.078;15.536;2022-08-19T15:52:56;25.20;80.80